Time;durP1;ratioP1;P1;durP2;ratioP2;P2;SDS_P1;SDS_P2;PMS_P1;PMS_P2;Temp;Humidity;BMP_temperature;BMP_pressure;BME280_temperature;BME280_humidity;BME280_pressure;Samples;Min_cycle;Max_cycle;Signal;HPM_P1;HPM_P2
2023/08/05 00:00:00;;;;;;;20.97;8.53;;;14.50;7.10;;;;;;5041107;28;20214;-79
2023/08/05 00:02:26;;;;;;;16.73;6.80;;;14.40;3.00;;;;;;5052460;28;20183;-79
2023/08/05 00:04:53;;;;;;;17.00;6.90;;;14.40;4.70;;;;;;5052346;28;20179;-80
2023/08/05 00:07:19;;;;;;;14.00;6.53;;;14.40;1.30;;;;;;5044978;28;20190;-79
2023/08/05 00:09:45;;;;;;;16.47;6.67;;;;;;;;;;5036700;28;20501;-79
2023/08/05 00:12:11;;;;;;;20.80;7.57;;;14.30;1.00;;;;;;5046499;28;20471;-82
2023/08/05 00:14:37;;;;;;;19.53;6.97;;;14.20;5.40;;;;;;5049200;28;20729;-82
2023/08/05 00:17:03;;;;;;;17.80;6.90;;;14.20;7.50;;;;;;5053717;28;20176;-82
2023/08/05 00:19:51;;;;;;;11.23;7.13;;;14.20;8.40;;;;;;5051569;28;20392;-81
2023/08/05 00:22:17;;;;;;;15.37;6.30;;;14.20;7.00;;;;;;5051841;28;20453;-82
2023/08/05 00:24:43;;;;;;;16.83;7.20;;;14.10;6.50;;;;;;5040042;28;20743;-82
2023/08/05 00:27:08;;;;;;;13.07;7.27;;;14.00;6.10;;;;;;5050244;28;20562;-82
2023/08/05 00:29:34;;;;;;;16.97;6.20;;;14.00;7.00;;;;;;5043915;28;20182;-82
2023/08/05 00:32:04;;;;;;;26.37;7.60;;;14.00;9.40;;;;;;5045511;28;20258;-82
2023/08/05 00:34:46;;;;;;;18.53;6.60;;;13.90;7.50;;;;;;5054014;28;20175;-82
2023/08/05 00:47:20;;;;;;;18.00;6.17;;;13.80;5.00;;;;;;5053649;28;20528;-82
2023/08/05 00:53:16;;;;;;;15.43;6.93;;;13.70;7.10;;;;;;5053487;28;20376;-82
2023/08/05 01:06:16;;;;;;;15.43;5.77;;;13.50;6.80;;;;;;5043121;28;20360;-82
2023/08/05 01:12:16;;;;;;;18.73;6.37;;;13.40;8.60;;;;;;5038469;28;20405;-79
2023/08/05 01:18:06;;;;;;;18.10;6.13;;;13.30;7.00;;;;;;5051881;28;20409;-79
2023/08/05 01:20:46;;;;;;;14.97;6.13;;;13.30;7.20;;;;;;5048190;28;20436;-79
2023/08/05 01:33:19;;;;;;;13.50;6.10;;;13.10;8.60;;;;;;5041781;28;20377;-82
2023/08/05 01:42:28;;;;;;;41.87;6.93;;;13.00;15.00;;;;;;5053656;28;20444;-82
2023/08/05 01:48:16;;;;;;;15.43;6.40;;;13.00;14.40;;;;;;5033302;28;20156;-82
2023/08/05 01:51:21;;;;;;;21.50;6.30;;;13.40;12.60;;;;;;5050981;28;20429;-82
2023/08/05 01:57:08;;;;;;;15.80;5.37;;;12.90;8.40;;;;;;5055473;28;20827;-79
2023/08/05 02:06:18;;;;;;;24.80;6.97;;;12.80;11.30;;;;;;5054386;28;20890;-79
2023/08/05 02:12:05;;;;;;;12.57;6.33;;;12.80;11.50;;;;;;5044316;28;20241;-79
2023/08/05 02:17:53;;;;;;;22.10;6.33;;;12.70;12.20;;;;;;5056495;28;20649;-79
2023/08/05 02:20:28;;;;;;;11.87;6.50;;;12.60;12.60;;;;;;5054269;28;20457;-79
2023/08/05 02:26:22;;;;;;;11.67;6.50;;;12.60;14.40;;;;;;5043189;28;20414;-80
2023/08/05 02:29:15;;;;;;;21.67;7.67;;;12.60;7.80;;;;;;5037997;28;20396;-82
2023/08/05 02:32:21;;;;;;;9.90;6.10;;;12.60;10.40;;;;;;5056516;28;20410;-82
2023/08/05 02:35:15;;;;;;;17.97;5.63;;;12.60;10.20;;;;;;5046014;28;20879;-82
2023/08/05 02:44:07;;;;;;;13.63;5.87;;;12.40;7.10;;;;;;5055963;28;20443;-82
2023/08/05 02:47:22;;;;;;;15.37;5.93;;;12.40;10.10;;;;;;5056224;28;20884;-83
2023/08/05 02:53:10;;;;;;;16.73;6.70;;;12.40;12.90;;;;;;5055489;28;20936;-82
2023/08/05 02:55:36;;;;;;;17.10;6.13;;;12.30;10.50;;;;;;5052535;28;20450;-82
2023/08/05 02:58:01;;;;;;;21.73;6.30;;;12.30;10.50;;;;;;5053050;28;20623;-79
2023/08/05 03:00:40;;;;;;;11.80;6.20;;;12.30;13.40;;;;;;5038350;28;20204;-79
2023/08/05 03:03:08;;;;;;;16.53;5.77;;;12.30;15.00;;;;;;5049726;28;20182;-79
2023/08/05 03:05:57;;;;;;;14.40;6.10;;;12.30;14.30;;;;;;5055673;28;20418;-79
2023/08/05 03:09:04;;;;;;;11.60;6.30;;;12.20;14.00;;;;;;5047026;28;20474;-79
2023/08/05 03:14:52;;;;;;;12.40;6.13;;;12.10;12.80;;;;;;5055156;28;20874;-79
2023/08/05 03:21:04;;;;;;;12.80;6.17;;;12.10;15.70;;;;;;5054739;28;20531;-79
2023/08/05 03:26:51;;;;;;;12.17;7.13;;;12.00;14.10;;;;;;5036278;28;20411;-82
2023/08/05 03:32:39;;;;;;;16.70;6.90;;;12.00;15.00;;;;;;5053305;28;20187;-81
2023/08/05 03:42:33;;;;;;;12.40;7.40;;;11.90;15.50;;;;;;5052564;28;20516;-82
2023/08/05 03:44:59;;;;;;;14.20;7.00;;;11.90;15.50;;;;;;5042962;28;20425;-82
2023/08/05 03:50:47;;;;;;;18.93;6.23;;;11.90;15.80;;;;;;5053034;28;20189;-82
2023/08/05 03:56:34;;;;;;;12.70;7.50;;;11.80;18.50;;;;;;5038796;28;20263;-82
2023/08/05 03:59:23;;;;;;;12.80;7.00;;;11.80;16.80;;;;;;5048894;28;21215;-81
2023/08/05 04:08:32;;;;;;;10.57;6.53;;;11.80;21.30;;;;;;5051616;28;20417;-82
2023/08/05 04:14:20;;;;;;;12.93;6.57;;;11.80;16.50;;;;;;5058093;28;20198;-82
2023/08/05 04:20:08;;;;;;;17.63;6.80;;;11.80;14.60;;;;;;5051394;28;20551;-81
2023/08/05 04:22:35;;;;;;;16.10;6.93;;;11.80;14.60;;;;;;5052645;28;20442;-82
2023/08/05 04:25:30;;;;;;;16.23;6.43;;;11.90;16.10;;;;;;5043478;28;20510;-82
2023/08/05 04:28:04;;;;;;;9.40;6.67;;;11.80;17.30;;;;;;5050763;28;20434;-82
2023/08/05 04:33:58;;;;;;;10.93;5.93;;;11.90;20.60;;;;;;5045449;28;20360;-82
2023/08/05 04:36:52;;;;;;;12.00;6.27;;;12.30;19.60;;;;;;5053766;28;20769;-83
2023/08/05 04:39:51;;;;;;;15.20;6.67;;;11.90;17.20;;;;;;5051936;28;20179;-82
2023/08/05 04:42:31;;;;;;;20.97;7.27;;;11.90;20.20;;;;;;5051912;28;20513;-82
2023/08/05 04:49:09;;;;;;;11.60;6.87;;;12.00;23.00;;;;;;5042974;28;20380;-81
2023/08/05 04:52:15;;;;;;;12.27;7.07;;;12.00;25.50;;;;;;5051850;28;20462;-81
2023/08/05 04:55:08;;;;;;;15.60;6.80;;;12.10;23.10;;;;;;5045621;28;20759;-81
2023/08/05 04:58:27;;;;;;;15.53;6.60;;;12.20;21.10;;;;;;5050438;28;20396;-80
2023/08/05 05:14:46;;;;;;;12.93;6.90;;;12.50;24.10;;;;;;5044604;28;20436;-82
2023/08/05 05:24:03;;;;;;;21.47;8.83;;;12.70;25.80;;;;;;5046759;28;21010;-83
2023/08/05 05:26:28;;;;;;;19.43;7.80;;;12.80;24.10;;;;;;5037219;28;20500;-83
2023/08/05 05:28:54;;;;;;;15.40;7.20;;;13.00;25.90;;;;;;5050326;28;20512;-83
2023/08/05 05:31:20;;;;;;;22.30;6.50;;;13.50;28.80;;;;;;5045847;28;20187;-83
2023/08/05 05:33:52;;;;;;;15.03;6.57;;;13.30;30.70;;;;;;5054301;28;20175;-84
2023/08/05 05:36:18;;;;;;;10.07;6.60;;;14.00;32.80;;;;;;5059558;28;20183;-83
2023/08/05 05:39:34;;;;;;;32.50;7.80;;;13.30;31.00;;;;;;5052302;28;20398;-83
2023/08/05 05:42:39;;;;;;;17.10;7.00;;;13.30;31.00;;;;;;5046498;28;20203;-83
2023/08/05 05:45:28;;;;;;;20.83;6.60;;;13.40;30.50;;;;;;5052527;28;20422;-83
2023/08/05 05:48:27;;;;;;;28.47;8.47;;;13.50;32.90;;;;;;5049250;28;20399;-84
2023/08/05 05:51:27;;;;;;;19.00;8.50;;;13.70;36.60;;;;;;5055242;28;20400;-84
2023/08/05 05:57:39;;;;;;;10.27;6.53;;;13.90;40.90;;;;;;5057059;28;20467;-84
2023/08/05 06:00:16;;;;;;;25.07;8.40;;;14.10;42.30;;;;;;5045402;28;20466;-84
2023/08/05 06:03:28;;;;;;;21.13;9.67;;;14.10;42.30;;;;;;5052711;28;20439;-84
2023/08/05 06:05:55;;;;;;;13.50;7.37;;;14.30;45.80;;;;;;5042357;28;20979;-84
2023/08/05 06:09:15;;;;;;;17.83;8.17;;;14.40;45.60;;;;;;5049590;28;20400;-84
2023/08/05 06:11:58;;;;;;;11.30;6.87;;;14.60;46.00;;;;;;5056408;28;20433;-78
2023/08/05 06:14:40;;;;;;;10.20;7.40;;;14.70;46.00;;;;;;5057178;28;20459;-78
2023/08/05 06:17:57;;;;;;;13.27;8.80;;;14.90;46.10;;;;;;5045935;28;20728;-78
2023/08/05 06:20:57;;;;;;;13.43;7.87;;;15.00;41.60;;;;;;5056485;28;20450;-78
2023/08/05 06:23:23;;;;;;;19.00;9.77;;;15.10;39.60;;;;;;5046888;28;20903;-78
2023/08/05 06:26:28;;;;;;;31.07;14.53;;;15.30;38.50;;;;;;5056418;28;20534;-78
2023/08/05 06:28:58;;;;;;;19.63;9.37;;;15.50;29.30;;;;;;5056824;28;20191;-77
2023/08/05 06:31:28;;;;;;;12.53;8.57;;;15.50;31.00;;;;;;5055641;28;20405;-77
2023/08/05 06:33:54;;;;;;;13.93;8.40;;;15.70;31.80;;;;;;5053210;28;20407;-78
2023/08/05 06:36:22;;;;;;;11.80;7.97;;;15.80;32.10;;;;;;5045613;28;20426;-75
2023/08/05 06:39:09;;;;;;;11.17;7.90;;;15.90;23.80;;;;;;5039501;28;20187;-78
2023/08/05 06:41:57;;;;;;;12.47;7.70;;;16.10;22.60;;;;;;5048970;28;20454;-77
2023/08/05 06:44:23;;;;;;;11.27;7.37;;;16.20;18.00;;;;;;5051490;28;20814;-78
2023/08/05 06:46:58;;;;;;;15.83;7.80;;;16.30;8.30;;;;;;5055998;28;20446;-77
2023/08/05 06:49:58;;;;;;;11.60;7.03;;;16.40;5.10;;;;;;5056368;28;20403;-78
2023/08/05 06:52:40;;;;;;;9.90;5.80;;;16.50;1.00;;;;;;5055034;28;20510;-78
2023/08/05 06:55:10;;;;;;;14.87;6.57;;;16.60;1.00;;;;;;5055842;28;20849;-78
2023/08/05 06:57:57;;;;;;;9.63;6.13;;;16.70;1.00;;;;;;5044098;28;20414;-78
2023/08/05 07:00:28;;;;;;;16.40;6.00;;;16.90;1.00;;;;;;5047519;28;20447;-79
2023/08/05 07:03:25;;;;;;;6.50;5.40;;;17.00;1.00;;;;;;5055183;28;20906;-77
2023/08/05 07:06:10;;;;;;;6.50;5.30;;;17.20;1.00;;;;;;5048683;28;20416;-77
2023/08/05 07:08:40;;;;;;;8.60;5.50;;;17.10;1.00;;;;;;5056081;28;20423;-77
2023/08/05 07:11:22;;;;;;;7.57;5.40;;;17.40;1.00;;;;;;5055820;28;20872;-77
2023/08/05 07:13:58;;;;;;;7.77;4.83;;;17.50;1.00;;;;;;5055915;28;20413;-77
2023/08/05 07:16:23;;;;;;;8.10;4.50;;;17.60;1.00;;;;;;5055588;28;20425;-76
2023/08/05 07:19:09;;;;;;;4.70;4.30;;;17.80;1.00;;;;;;5055450;28;20720;-77
2023/08/05 07:22:27;;;;;;;6.53;4.80;;;17.90;1.00;;;;;;5044244;28;20194;-77
2023/08/05 07:24:58;;;;;;;12.30;4.77;;;18.10;1.00;;;;;;5035317;28;20446;-82
2023/08/05 07:27:28;;;;;;;4.13;3.80;;;18.10;1.00;;;;;;5043177;28;20980;-77
2023/08/05 07:29:58;;;;;;;4.40;3.50;;;18.30;1.00;;;;;;5054671;28;20742;-83
2023/08/05 07:32:40;;;;;;;5.67;4.20;;;18.50;1.00;;;;;;5050833;28;20409;-82
2023/08/05 07:35:16;;;;;;;20.97;4.07;;;18.60;1.00;;;;;;5035263;28;20451;-83
2023/08/05 07:37:58;;;;;;;5.07;3.20;;;18.80;1.00;;;;;;5040145;28;20506;-82
2023/08/05 07:40:29;;;;;;;8.77;4.67;;;18.90;1.00;;;;;;5045687;28;20467;-81
2023/08/05 07:43:03;;;;;;;15.20;4.30;;;19.00;1.00;;;;;;5037418;28;20528;-82
2023/08/05 07:45:35;;;;;;;5.93;4.00;;;18.90;1.00;;;;;;5048032;28;20417;-81
2023/08/05 07:48:06;;;;;;;14.93;4.20;;;19.20;1.00;;;;;;5054605;28;20839;-81
2023/08/05 07:50:40;;;;;;;5.73;3.37;;;19.30;1.00;;;;;;5039772;28;20433;-82
2023/08/05 07:53:23;;;;;;;5.23;3.97;;;19.30;1.00;;;;;;5047823;28;20957;-78
2023/08/05 07:55:49;;;;;;;10.27;4.57;;;19.50;1.00;;;;;;5044680;28;20410;-77
2023/08/05 07:58:17;;;;;;;5.27;4.20;;;19.60;1.00;;;;;;5050969;28;20416;-76
2023/08/05 08:00:56;;;;;;;19.17;5.80;;;19.80;1.00;;;;;;5047737;28;20196;-77
2023/08/05 08:03:26;;;;;;;13.40;4.43;;;19.80;1.00;;;;;;5041897;28;20440;-77
2023/08/05 08:05:52;;;;;;;6.33;3.67;;;20.00;1.00;;;;;;5044848;28;20453;-78
2023/08/05 08:08:22;;;;;;;4.57;3.33;;;20.20;1.00;;;;;;5048454;28;21016;-77
2023/08/05 08:10:58;;;;;;;4.23;3.10;;;20.40;1.00;;;;;;5054608;28;20181;-77
2023/08/05 08:13:24;;;;;;;4.80;3.40;;;20.50;1.00;;;;;;5048503;28;20936;-77
2023/08/05 08:16:03;;;;;;;8.10;3.50;;;20.70;1.00;;;;;;5040498;28;20454;-76
2023/08/05 08:18:40;;;;;;;5.37;4.70;;;20.70;1.00;;;;;;5054562;28;20162;-76
2023/08/05 08:21:07;;;;;;;7.10;3.40;;;20.90;1.00;;;;;;5044699;28;20503;-77
2023/08/05 08:23:33;;;;;;;3.17;2.97;;;;;;;;;;5043858;28;20432;-76
2023/08/05 08:26:16;;;;;;;6.00;2.80;;;21.30;1.00;;;;;;5052918;28;20416;-77
2023/08/05 08:28:58;;;;;;;3.80;2.53;;;21.40;1.00;;;;;;5049835;28;20414;-77
2023/08/05 08:31:29;;;;;;;3.13;2.77;;;21.50;1.00;;;;;;5034597;28;20865;-76
2023/08/05 08:33:55;;;;;;;7.53;2.60;;;21.50;1.00;;;;;;5040200;28;20467;-77
2023/08/05 08:36:28;;;;;;;3.93;3.07;;;21.50;1.00;;;;;;5039810;28;20437;-76
2023/08/05 08:39:10;;;;;;;3.90;2.80;;;21.60;1.00;;;;;;5043805;28;20416;-78
2023/08/05 08:41:43;;;;;;;151.80;62.53;;;21.50;1.00;;;;;;5052699;28;20478;-76
2023/08/05 08:44:16;;;;;;;24.20;8.10;;;21.60;1.00;;;;;;5052472;28;20514;-77
2023/08/05 08:46:48;;;;;;;6.50;4.30;;;21.60;1.00;;;;;;5049164;28;20414;-77
2023/08/05 08:49:30;;;;;;;3.73;3.30;;;21.60;1.00;;;;;;5052622;28;20761;-77
2023/08/05 08:52:12;;;;;;;4.97;3.17;;;21.80;1.00;;;;;;5047013;28;20436;-77
2023/08/05 08:55:10;;;;;;;4.20;2.90;;;21.90;1.00;;;;;;5042810;28;20431;-77
2023/08/05 08:57:46;;;;;;;9.13;4.03;;;22.00;1.00;;;;;;5053906;28;20508;-77
2023/08/05 09:00:40;;;;;;;8.53;2.70;;;22.10;1.00;;;;;;5053580;28;20521;-77
2023/08/05 09:03:12;;;;;;;2.60;2.40;;;22.20;1.00;;;;;;5040744;28;20520;-77
2023/08/05 09:05:44;;;;;;;4.73;2.50;;;22.10;1.00;;;;;;5052961;28;20982;-77
2023/08/05 09:08:22;;;;;;;4.20;2.17;;;22.10;1.00;;;;;;5038967;28;20462;-77
2023/08/05 09:10:52;;;;;;;2.70;2.50;;;22.20;1.00;;;;;;5053635;28;20893;-77
2023/08/05 09:13:19;;;;;;;6.30;2.60;;;21.70;1.00;;;;;;5053632;28;20459;-77
2023/08/05 09:15:46;;;;;;;3.53;2.30;;;21.70;1.00;;;;;;5052643;28;20463;-77
2023/08/05 09:18:29;;;;;;;11.43;2.50;;;21.60;1.00;;;;;;5049308;28;20483;-77
2023/08/05 09:21:04;;;;;;;3.30;2.40;;;21.60;1.00;;;;;;5053369;28;20445;-79
2023/08/05 09:23:30;;;;;;;4.60;2.00;;;21.60;1.00;;;;;;5053292;28;20422;-79
2023/08/05 09:26:11;;;;;;;2.17;1.90;;;21.50;1.00;;;;;;5053291;28;20411;-80
2023/08/05 09:28:40;;;;;;;2.40;2.13;;;21.70;1.00;;;;;;5052911;28;20234;-80
2023/08/05 09:31:13;;;;;;;8.70;2.90;;;21.80;1.00;;;;;;5053908;28;20441;-78
2023/08/05 09:33:41;;;;;;;3.70;1.73;;;22.00;1.00;;;;;;5048810;28;20430;-77
2023/08/05 09:36:40;;;;;;;2.50;2.30;;;22.00;1.00;;;;;;5053333;28;20414;-78
2023/08/05 09:39:55;;;;;;;2.60;2.13;;;21.90;1.00;;;;;;5039438;28;20400;-78
2023/08/05 09:43:09;;;;;;;2.37;2.10;;;21.80;1.00;;;;;;5047928;28;20808;-78
2023/08/05 09:46:11;;;;;;;2.60;1.70;;;21.70;1.00;;;;;;5053092;28;20410;-82
2023/08/05 09:49:10;;;;;;;2.70;1.60;;;21.70;1.00;;;;;;5052047;28;20798;-82
2023/08/05 09:52:04;;;;;;;1.97;1.70;;;21.80;1.00;;;;;;5034893;28;20442;-82
2023/08/05 09:58:12;;;;;;;5.07;1.60;;;22.10;1.00;;;;;;5040569;28;20495;-81
2023/08/05 10:00:41;;;;;;;1.93;1.80;;;22.00;1.00;;;;;;5052582;28;20454;-81
2023/08/05 10:03:40;;;;;;;1.87;1.77;;;21.80;1.00;;;;;;5052956;28;20421;-82
2023/08/05 10:06:11;;;;;;;4.40;1.40;;;21.70;1.00;;;;;;5042992;28;20465;-82
2023/08/05 10:09:04;;;;;;;3.07;1.80;;;21.60;1.00;;;;;;5046299;28;20928;-83
2023/08/05 10:12:09;;;;;;;1.67;1.57;;;21.50;1.00;;;;;;5052586;28;20516;-83
2023/08/05 10:14:41;;;;;;;5.67;2.07;;;21.60;1.00;;;;;;5048539;28;20418;-84
2023/08/05 10:17:11;;;;;;;4.83;2.10;;;21.80;1.00;;;;;;5043431;28;20460;-82
2023/08/05 10:19:41;;;;;;;14.03;2.10;;;22.10;1.00;;;;;;5048925;28;20436;-83
2023/08/05 10:22:40;;;;;;;5.50;1.83;;;22.10;1.00;;;;;;5043896;28;20949;-83
2023/08/05 10:25:41;;;;;;;2.73;1.87;;;22.10;1.00;;;;;;5046367;28;20556;-83
2023/08/05 10:28:22;;;;;;;1.67;1.57;;;22.20;1.00;;;;;;5055936;28;20512;-83
2023/08/05 10:30:54;;;;;;;1.43;1.33;;;22.30;1.00;;;;;;5042350;28;20431;-83
2023/08/05 10:33:57;;;;;;;1.43;1.33;;;22.50;1.00;;;;;;5047017;28;20507;-83
2023/08/05 10:36:45;;;;;;;2.10;1.70;;;22.70;1.00;;;;;;5036994;28;20411;-84
2023/08/05 10:39:36;;;;;;;3.73;1.23;;;23.30;1.00;;;;;;5046378;28;20433;-83
2023/08/05 10:42:35;;;;;;;3.60;1.80;;;23.30;1.00;;;;;;5043792;28;20533;-83
2023/08/05 10:45:04;;;;;;;4.33;1.87;;;23.50;1.00;;;;;;5047658;28;20492;-83
2023/08/05 10:47:34;;;;;;;4.57;1.93;;;23.40;1.00;;;;;;5042124;28;20434;-82
2023/08/05 10:50:14;;;;;;;2.20;1.50;;;23.40;1.00;;;;;;5053566;28;20427;-82
2023/08/05 10:53:11;;;;;;;2.97;1.73;;;23.20;1.00;;;;;;5045395;28;20432;-82
2023/08/05 10:59:03;;;;;;;1.90;1.73;;;23.50;1.00;;;;;;5055917;28;20432;-85
2023/08/05 11:02:09;;;;;;;1.70;1.60;;;23.80;1.00;;;;;;5044278;28;20493;-85
2023/08/05 11:05:09;;;;;;;1.33;1.23;;;23.90;1.00;;;;;;5046660;28;20420;-86
2023/08/05 11:08:04;;;;;;;1.57;1.13;;;24.30;1.00;;;;;;5064980;28;20460;-84
2023/08/05 11:10:43;;;;;;;1.37;1.27;;;24.30;1.00;;;;;;5040592;28;20945;-81
2023/08/05 11:13:11;;;;;;;2.30;1.10;;;24.30;1.00;;;;;;5055680;28;20455;-83
2023/08/05 11:19:11;;;;;;;2.43;1.40;;;24.60;1.00;;;;;;5049489;28;20425;-81
2023/08/05 11:21:44;;;;;;;2.17;1.43;;;24.30;1.00;;;;;;5048040;28;20488;-81
2023/08/05 11:24:19;;;;;;;4.10;1.60;;;24.20;1.00;;;;;;5055491;28;20439;-81
2023/08/05 11:27:04;;;;;;;1.67;1.57;;;24.30;1.00;;;;;;5055428;28;20456;-81
2023/08/05 11:29:40;;;;;;;4.07;1.30;;;24.20;1.00;;;;;;5054172;28;20831;-81
2023/08/05 11:32:10;;;;;;;2.70;1.40;;;24.30;1.00;;;;;;5051143;28;20426;-81
2023/08/05 11:34:40;;;;;;;1.53;1.20;;;24.40;1.00;;;;;;5055271;28;20416;-81
2023/08/05 11:37:10;;;;;;;2.90;1.30;;;24.30;1.00;;;;;;5054425;28;20384;-81
2023/08/05 11:39:40;;;;;;;1.37;1.27;;;24.30;1.00;;;;;;5053586;28;20927;-81
2023/08/05 11:42:40;;;;;;;1.30;1.20;;;24.40;1.00;;;;;;5053960;28;20461;-81
2023/08/05 11:45:12;;;;;;;1.50;1.40;;;24.60;1.00;;;;;;5048465;28;20900;-81
2023/08/05 11:47:41;;;;;;;1.23;1.10;;;24.70;1.00;;;;;;5054770;28;21315;-80
2023/08/05 11:50:12;;;;;;;1.20;1.10;;;24.50;1.00;;;;;;5054736;28;20421;-81
2023/08/05 11:52:40;;;;;;;3.57;1.30;;;24.50;1.00;;;;;;5054831;28;20472;-81
2023/08/05 11:55:10;;;;;;;1.77;1.30;;;24.70;1.00;;;;;;5040295;28;20421;-81
2023/08/05 11:58:11;;;;;;;3.23;1.40;;;24.70;1.00;;;;;;5053558;28;20531;-81
2023/08/05 12:00:45;;;;;;;1.80;1.20;;;24.90;1.00;;;;;;5034629;28;20540;-81
2023/08/05 12:03:40;;;;;;;1.33;1.23;;;25.10;1.00;;;;;;5039538;28;20445;-81
2023/08/05 12:06:06;;;;;;;1.40;1.30;;;25.30;1.00;;;;;;5055111;28;20396;-81
2023/08/05 12:08:43;;;;;;;1.67;1.30;;;25.30;1.00;;;;;;5053486;28;20428;-82
2023/08/05 12:12:00;;;;;;;5.60;3.53;;;25.10;1.00;;;;;;5037894;28;20178;-81
2023/08/05 12:14:40;;;;;;;3.10;1.20;;;25.30;1.00;;;;;;4992873;28;20530;-81
2023/08/05 12:17:10;;;;;;;7.03;1.47;;;25.30;1.00;;;;;;4993134;28;20897;-81
2023/08/05 12:19:41;;;;;;;2.70;1.50;;;25.40;1.00;;;;;;4993035;28;20826;-81
2023/08/05 12:22:10;;;;;;;2.80;1.20;;;25.70;1.00;;;;;;4992276;28;20467;-81
2023/08/05 12:24:36;;;;;;;1.43;1.33;;;25.80;1.00;;;;;;4992429;28;20944;-80
2023/08/05 12:30:40;;;;;;;2.63;0.90;;;25.40;1.00;;;;;;4992704;28;20238;-83
2023/08/05 12:33:12;;;;;;;1.20;1.20;;;25.50;1.00;;;;;;4989678;28;20605;-84
2023/08/05 12:35:40;;;;;;;2.70;1.50;;;25.30;1.00;;;;;;4991837;28;20405;-85
2023/08/05 12:38:10;;;;;;;3.90;1.40;;;25.30;1.00;;;;;;4990025;28;20453;-80
2023/08/05 12:41:11;;;;;;;2.90;1.30;;;25.30;1.00;;;;;;4992354;28;20952;-81
2023/08/05 12:44:10;;;;;;;1.50;1.17;;;25.20;1.00;;;;;;4991652;28;20443;-81
2023/08/05 12:46:40;;;;;;;1.50;1.40;;;25.40;1.00;;;;;;4992661;28;20396;-80
2023/08/05 12:49:10;;;;;;;1.63;1.30;;;25.20;1.00;;;;;;4988644;28;20525;-81
2023/08/05 12:51:40;;;;;;;4.97;1.40;;;25.60;1.00;;;;;;5027347;28;20953;-79
2023/08/05 12:54:10;;;;;;;1.30;1.20;;;25.60;1.00;;;;;;5052562;28;20441;-80
2023/08/05 12:56:40;;;;;;;2.20;1.30;;;25.70;1.00;;;;;;5053519;28;20788;-80
2023/08/05 12:59:10;;;;;;;1.77;1.50;;;25.60;1.00;;;;;;5053555;28;20405;-81
2023/08/05 13:02:10;;;;;;;1.30;1.20;;;25.80;1.00;;;;;;5052741;28;20464;-81
2023/08/05 13:04:40;;;;;;;4.23;1.67;;;25.60;1.00;;;;;;5048656;28;20435;-81
2023/08/05 13:07:40;;;;;;;3.23;1.40;;;25.40;1.00;;;;;;5052589;28;20424;-80
2023/08/05 13:13:27;;;;;;;1.37;1.10;;;25.70;1.00;;;;;;5053252;28;20475;-82
2023/08/05 13:19:20;;;;;;;2.03;1.20;;;25.80;1.00;;;;;;5053241;28;20205;-82
2023/08/05 13:21:45;;;;;;;1.43;1.33;;;26.00;1.00;;;;;;5049619;28;20505;-81
2023/08/05 13:27:34;;;;;;;1.60;1.50;;;26.30;1.00;;;;;;5052796;28;20743;-83
2023/08/05 13:33:21;;;;;;;2.60;1.50;;;26.50;1.00;;;;;;5033621;28;20379;-85
2023/08/05 13:36:40;;;;;;;3.43;1.60;;;26.50;1.00;;;;;;5046664;28;20431;-84
2023/08/05 13:45:54;;;;;;;2.40;1.70;;;26.80;1.00;;;;;;5046101;28;20840;-84
2023/08/05 14:01:48;;;;;;;3.13;1.23;;;27.00;1.00;;;;;;5054239;28;23385;-79
2023/08/05 14:04:51;;;;;;;1.10;1.10;;;26.70;1.00;;;;;;5056590;28;20403;-80
2023/08/05 14:07:22;;;;;;;1.40;1.30;;;26.80;1.00;;;;;;5037410;28;20180;-84
2023/08/05 14:13:10;;;;;;;3.00;1.40;;;27.00;1.00;;;;;;5056687;28;20418;-84
2023/08/05 14:19:06;;;;;;;1.80;1.70;;;26.70;1.00;;;;;;5056857;28;20156;-84
2023/08/05 14:35:00;;;;;;;1.50;1.40;;;26.70;1.00;;;;;;5042209;28;21954;-83
2023/08/05 14:37:34;;;;;;;2.20;1.43;;;26.40;1.00;;;;;;5042928;28;20526;-81
2023/08/05 14:40:22;;;;;;;1.53;1.20;;;26.40;1.00;;;;;;5056008;28;20186;-81
2023/08/05 14:46:28;;;;;;;4.13;2.33;;;26.20;1.00;;;;;;5040302;28;20447;-80
2023/08/05 14:52:15;;;;;;;6.40;2.03;;;26.00;1.00;;;;;;5055602;28;20396;-81
2023/08/05 14:54:46;;;;;;;2.60;2.07;;;26.00;1.00;;;;;;5055904;28;20438;-80
2023/08/05 15:00:33;;;;;;;1.93;1.73;;;26.00;1.00;;;;;;5041340;28;20491;-81
2023/08/05 15:03:52;;;;;;;2.87;2.07;;;25.90;1.00;;;;;;5054802;28;20455;-80
2023/08/05 15:06:57;;;;;;;4.33;1.63;;;25.80;1.00;;;;;;5053978;28;20512;-80
2023/08/05 15:09:23;;;;;;;3.03;2.20;;;25.60;1.00;;;;;;5052062;28;20431;-82
2023/08/05 15:12:16;;;;;;;2.27;2.00;;;25.40;1.00;;;;;;5055854;28;20416;-81
2023/08/05 15:18:03;;;;;;;5.13;2.40;;;25.70;1.00;;;;;;5053261;28;20479;-81
2023/08/05 15:20:46;;;;;;;6.30;2.10;;;25.70;1.00;;;;;;5055075;28;22757;-80
2023/08/05 15:23:52;;;;;;;2.10;2.00;;;25.70;1.00;;;;;;5055827;28;20182;-80
2023/08/05 15:26:46;;;;;;;1.80;1.70;;;25.50;1.00;;;;;;5035198;28;20438;-79
2023/08/05 15:29:17;;;;;;;4.13;1.53;;;25.70;1.00;;;;;;5051805;28;20516;-78
2023/08/05 15:38:27;;;;;;;10.53;1.70;;;26.00;1.00;;;;;;5043283;28;20495;-81
2023/08/05 15:40:58;;;;;;;1.80;1.70;;;26.00;1.00;;;;;;5054522;28;21011;-82
2023/08/05 15:43:54;;;;;;;2.30;2.07;;;25.80;1.00;;;;;;5055089;28;20542;-81
2023/08/05 15:46:20;;;;;;;4.07;1.70;;;25.50;1.00;;;;;;5054643;28;20440;-81
2023/08/05 15:48:46;;;;;;;2.10;1.90;;;25.30;1.00;;;;;;5055077;28;20405;-81
2023/08/05 15:57:55;;;;;;;2.43;2.23;;;24.70;1.00;;;;;;5045886;28;20462;-80
2023/08/05 16:00:40;;;;;;;3.33;2.20;;;24.40;1.00;;;;;;5053523;28;20439;-80
2023/08/05 16:06:27;;;;;;;2.30;2.10;;;24.00;1.00;;;;;;5053562;28;20432;-80
2023/08/05 16:12:28;;;;;;;2.50;2.03;;;23.70;1.00;;;;;;5054574;28;20185;-80
2023/08/05 16:15:10;;;;;;;2.83;1.90;;;23.70;1.00;;;;;;5052220;28;20440;-80
2023/08/05 16:20:57;;;;;;;3.10;2.27;;;23.60;1.00;;;;;;5053851;28;20459;-81
2023/08/05 16:23:40;;;;;;;2.43;2.23;;;23.40;1.00;;;;;;5052817;28;20421;-79
2023/08/05 16:29:28;;;;;;;12.63;3.20;;;23.10;1.00;;;;;;5049385;28;20671;-79
2023/08/05 16:36:10;;;;;;;8.10;4.10;;;22.70;1.00;;;;;;5051950;28;20219;-78
2023/08/05 16:41:57;;;;;;;12.73;4.10;;;21.90;1.00;;;;;;5047142;28;20515;-81
2023/08/05 16:44:23;;;;;;;11.97;5.03;;;21.00;1.00;;;;;;5052832;28;20419;-80
2023/08/05 16:50:11;;;;;;;6.17;4.50;;;20.80;1.00;;;;;;5053685;28;20189;-80
2023/08/05 16:53:10;;;;;;;14.33;4.97;;;20.60;1.00;;;;;;5048749;28;20420;-80
2023/08/05 16:58:57;;;;;;;6.27;4.13;;;20.40;1.00;;;;;;5040359;28;20993;-79
2023/08/05 17:02:09;;;;;;;6.07;3.90;;;20.30;1.00;;;;;;5053425;28;20537;-80
2023/08/05 17:04:35;;;;;;;11.90;5.00;;;20.30;1.00;;;;;;5037256;28;20200;-79
2023/08/05 17:10:52;;;;;;;8.23;4.60;;;20.10;1.00;;;;;;5033444;28;20222;-79
2023/08/05 17:20:03;;;;;;;8.63;5.10;;;19.90;1.00;;;;;;5042317;28;20891;-78
2023/08/05 17:22:41;;;;;;;8.13;4.73;;;19.80;1.00;;;;;;5053386;28;20483;-79
2023/08/05 17:25:46;;;;;;;13.00;5.37;;;19.70;1.00;;;;;;5053521;28;20419;-81
2023/08/05 17:31:52;;;;;;;10.23;5.33;;;19.50;1.00;;;;;;5040875;28;20428;-79
2023/08/05 17:34:28;;;;;;;18.53;5.60;;;19.50;1.00;;;;;;5052390;28;20419;-79
2023/08/05 17:40:16;;;;;;;8.87;5.07;;;19.30;1.00;;;;;;5052960;28;20426;-78
2023/08/05 17:46:34;;;;;;;13.50;5.80;;;19.10;1.00;;;;;;5045601;28;20186;-80
2023/08/05 17:49:22;;;;;;;6.90;4.90;;;19.20;1.00;;;;;;5053298;28;20434;-80
2023/08/05 17:55:09;;;;;;;8.17;5.30;;;19.20;1.00;;;;;;5050112;28;20434;-80
2023/08/05 17:57:59;;;;;;;7.70;5.13;;;19.20;1.00;;;;;;5042941;28;20423;-79
2023/08/05 18:03:47;;;;;;;15.03;5.43;;;19.10;1.00;;;;;;5051613;28;20889;-81
2023/08/05 18:06:57;;;;;;;9.50;5.27;;;19.10;1.00;;;;;;5052144;28;20509;-80
2023/08/05 18:09:23;;;;;;;12.90;5.20;;;19.00;1.00;;;;;;5052648;28;20184;-79
2023/08/05 18:15:16;;;;;;;11.90;5.20;;;18.90;1.00;;;;;;5040617;28;20182;-80
2023/08/05 18:18:04;;;;;;;6.10;4.80;;;18.80;1.00;;;;;;5039517;28;20434;-78
2023/08/05 18:20:35;;;;;;;8.93;4.70;;;18.80;1.00;;;;;;5049865;28;20461;-78
2023/08/05 18:23:16;;;;;;;20.83;5.40;;;18.70;1.00;;;;;;5052931;28;20900;-78
2023/08/05 18:26:04;;;;;;;7.27;5.20;;;18.70;1.00;;;;;;5053219;28;20421;-80
2023/08/05 18:28:29;;;;;;;9.43;5.27;;;18.70;1.00;;;;;;5047531;28;21123;-81
2023/08/05 18:30:55;;;;;;;7.30;4.87;;;18.60;1.00;;;;;;5047197;28;20488;-81
2023/08/05 18:33:21;;;;;;;10.27;4.73;;;18.60;1.00;;;;;;5040302;28;20211;-81
2023/08/05 18:35:52;;;;;;;8.57;6.53;;;18.60;1.00;;;;;;5036918;28;20563;-78
2023/08/05 18:38:18;;;;;;;6.40;5.00;;;18.50;1.00;;;;;;5051332;28;20187;-79
2023/08/05 18:41:06;;;;;;;13.97;5.27;;;18.50;1.00;;;;;;5052864;28;20457;-78
2023/08/05 18:46:53;;;;;;;14.40;4.80;;;18.40;1.00;;;;;;5051100;28;20425;-79
2023/08/05 18:49:19;;;;;;;12.33;5.37;;;18.40;1.00;;;;;;5056197;28;20770;-79
2023/08/05 18:52:40;;;;;;;13.00;5.17;;;18.40;1.00;;;;;;5055796;28;20260;-81
2023/08/05 18:55:16;;;;;;;13.83;5.50;;;18.30;1.00;;;;;;5056112;28;20713;-80
2023/08/05 18:58:28;;;;;;;12.97;5.13;;;18.30;1.00;;;;;;5056006;28;20867;-80